Airfield :
LOGIN :

Register | Disclaimer

   EN    FR    IT 

 










Legend :    VFR   Marginal VFR   IFR   Intensive IFR   Very Intensive IFR
Visi :
Ceiling :
>= 8 km
>= 3000ft
5 to 8 km
1000 to 3000 ft
1500m to 5 km
500 to 1000 ft
800 to 1500m
200 to 500 ft
< 800m
< 200 ft
Symbols :   Thunderstorms  Fog  Heavy snow  Heavy precipitations  Wind > 20 kt
SIGMETs :     Misc.  Thunderstorms  Icing  Turbulence  Mountain Waves  Volcanic Ashes







- Airport Elevation : 44 ft
- IATA code : SOU
- Download approach charts


EGHI - Southampton

CURRENT METAR :
  • 222020Z VRB03KT CAVOK 21/13 Q1016

EXPIRED METARs :
  • 221950Z VRB03KT CAVOK 21/13 Q1016
  • 221920Z 20005KT 130V230 CAVOK 22/13 Q1016
  • 221850Z 20007KT 160V230 CAVOK 22/13 Q1016
  • 221820Z 21008KT 170V230 CAVOK 23/12 Q1015
  • 221750Z 21010KT CAVOK 24/10 Q1015

TAF TAF EGHI
Valid from the 22 at 18:00 until the 22 at 22:00 UTC


221701Z 2218/2222 20010KT 9999 FEW045
BECMG 2218/2221 VRB03KT
ATIS : +44 23 8062 7103
No reported NOTAMs for that airfield.



MET'MAP, your aeronautical weather chart ! - Copyright ORBIFLY December 2007 - Disclaimer

ORBIFLY MET'MAP TEAM :

Programming & Development : Alexandra Zaïnal
Concept & Development : Baudouin d'Aumeries
Co-Development & Prog : Marc-Olivier Méhu
Technical & hardware support : Manuel Goepfert

Contact : metmap@orbifly.com




SOURCES & CREDITS :

   NOAA